createdAt,value
2022-09-04T00:00:52.152Z,14.93
2022-09-04T00:03:32.009Z,14.86
2022-09-04T00:06:03.040Z,14.88
2022-09-04T00:08:41.209Z,14.85
2022-09-04T00:11:13.397Z,14.85
2022-09-04T00:13:45.612Z,14.89
2022-09-04T00:16:17.768Z,14.81
2022-09-04T00:18:49.129Z,14.82
2022-09-04T00:21:21.477Z,14.80
2022-09-04T00:23:52.991Z,14.80
2022-09-04T00:26:30.868Z,14.76
2022-09-04T00:29:04.175Z,14.66
2022-09-04T00:31:36.689Z,14.64
2022-09-04T00:34:10.368Z,14.53
2022-09-04T00:36:49.471Z,14.56
2022-09-04T00:39:21.347Z,14.52
2022-09-04T00:41:59.634Z,14.47
2022-09-04T00:44:36.814Z,14.43
2022-09-04T00:47:22.111Z,14.26
2022-09-04T00:50:07.241Z,14.15
2022-09-04T00:52:46.898Z,14.20
2022-09-04T00:55:29.275Z,14.10
2022-09-04T00:58:08.501Z,14.10
2022-09-04T01:00:38.040Z,14.26
2022-09-04T01:03:27.608Z,14.29
2022-09-04T01:06:08.869Z,14.29
2022-09-04T01:08:46.111Z,14.32
2022-09-04T01:11:15.994Z,14.39
2022-09-04T01:13:45.801Z,14.35
2022-09-04T01:16:21.132Z,14.28
2022-09-04T01:18:56.035Z,14.32
2022-09-04T01:21:48.246Z,14.21
2022-09-04T01:24:39.749Z,14.04
2022-09-04T01:27:10.484Z,14.04
2022-09-04T01:29:46.560Z,14.14
2022-09-04T01:32:19.728Z,14.17
2022-09-04T01:34:53.980Z,14.20
2022-09-04T01:37:31.512Z,14.37
2022-09-04T01:40:06.868Z,14.44
2022-09-04T01:42:41.756Z,14.40
2022-09-04T01:45:10.936Z,14.50
2022-09-04T01:47:43.962Z,14.53
2022-09-04T01:50:15.118Z,14.63
2022-09-04T01:52:48.038Z,14.67
2022-09-04T01:55:24.028Z,14.75
2022-09-04T01:58:02.604Z,14.77
2022-09-04T02:00:34.028Z,14.76
2022-09-04T02:03:04.248Z,14.78
2022-09-04T02:05:40.230Z,14.69
2022-09-04T02:08:19.825Z,14.68
2022-09-04T02:10:52.576Z,14.69
2022-09-04T02:13:24.427Z,14.74
2022-09-04T02:16:00.707Z,14.88
2022-09-04T02:18:38.239Z,14.96
2022-09-04T02:21:10.270Z,15.02
2022-09-04T02:23:41.890Z,15.04
2022-09-04T02:26:15.215Z,15.02
2022-09-04T02:28:51.530Z,15.05
2022-09-04T02:31:29.227Z,15.05
2022-09-04T02:34:02.673Z,15.08
2022-09-04T02:36:33.741Z,15.10
2022-09-04T02:39:06.860Z,15.15
2022-09-04T02:41:39.802Z,15.16
2022-09-04T02:44:21.019Z,15.18
2022-09-04T02:46:56.976Z,15.20
2022-09-04T02:49:32.196Z,15.30
2022-09-04T02:52:08.206Z,15.27
2022-09-04T02:54:53.960Z,15.26
2022-09-04T02:57:29.692Z,15.27
2022-09-04T03:00:07.413Z,15.30
2022-09-04T03:02:39.548Z,15.27
2022-09-04T03:05:15.069Z,15.27
2022-09-04T03:07:46.873Z,15.34
2022-09-04T03:10:18.231Z,15.36
2022-09-04T03:12:48.893Z,15.35
2022-09-04T03:15:23.391Z,15.44
2022-09-04T03:17:58.776Z,15.44
2022-09-04T03:20:32.836Z,15.46
2022-09-04T03:23:05.132Z,15.42
2022-09-04T03:25:45.309Z,15.40
2022-09-04T03:28:20.363Z,15.40
2022-09-04T03:30:50.723Z,15.41
2022-09-04T03:33:23.211Z,15.44
2022-09-04T03:35:56.279Z,15.39
2022-09-04T03:38:29.493Z,15.41
2022-09-04T03:41:06.263Z,15.40
2022-09-04T03:43:54.436Z,15.40
2022-09-04T03:46:32.301Z,15.43
2022-09-04T03:49:10.434Z,15.35
2022-09-04T03:51:45.774Z,15.44
2022-09-04T03:54:28.705Z,15.47
2022-09-04T03:57:08.875Z,15.43
2022-09-04T03:59:47.644Z,15.46
2022-09-04T04:02:23.678Z,15.48
2022-09-04T04:05:14.573Z,15.50
2022-09-04T04:07:46.966Z,15.44
2022-09-04T04:10:25.668Z,15.45
2022-09-04T04:13:17.991Z,15.48
2022-09-04T04:15:53.610Z,15.49
2022-09-04T04:18:54.066Z,15.48
2022-09-04T04:21:32.480Z,15.45
2022-09-04T04:24:15.185Z,15.47
2022-09-04T04:26:54.968Z,15.49
2022-09-04T04:29:45.093Z,15.48
2022-09-04T04:32:27.974Z,15.52
2022-09-04T04:35:11.283Z,15.54
2022-09-04T04:37:51.635Z,15.50
2022-09-04T04:40:26.091Z,15.51
2022-09-04T04:43:01.159Z,15.54
2022-09-04T04:45:50.291Z,15.52
2022-09-04T04:48:36.655Z,15.50
2022-09-04T04:51:13.661Z,15.51
2022-09-04T04:53:47.969Z,15.50
2022-09-04T04:56:20.074Z,15.47
2022-09-04T04:58:59.272Z,15.45
2022-09-04T05:01:36.484Z,15.45
2022-09-04T05:04:12.173Z,15.52
2022-09-04T05:06:45.977Z,15.51
2022-09-04T05:09:19.072Z,15.49
2022-09-04T05:11:53.861Z,15.55
2022-09-04T05:14:30.111Z,15.50
2022-09-04T05:17:05.609Z,15.55
2022-09-04T05:19:37.237Z,15.56
2022-09-04T05:22:13.366Z,15.56
2022-09-04T05:24:50.176Z,15.61
2022-09-04T05:27:43.403Z,15.59
2022-09-04T05:30:15.735Z,15.58
2022-09-04T05:32:52.820Z,15.61
2022-09-04T05:35:31.870Z,15.61
2022-09-04T05:38:09.733Z,15.68
2022-09-04T05:40:49.816Z,15.66
2022-09-04T05:43:26.679Z,15.64
2022-09-04T05:46:03.193Z,15.67
2022-09-04T05:48:39.174Z,15.68
2022-09-04T05:51:26.658Z,15.70
2022-09-04T05:54:10.482Z,15.68
2022-09-04T05:56:51.149Z,15.76
2022-09-04T05:59:51.522Z,15.71
2022-09-04T06:02:41.532Z,15.78
2022-09-04T06:05:22.432Z,15.79
2022-09-04T06:07:56.375Z,15.83
2022-09-04T06:10:32.719Z,15.91
2022-09-04T06:13:25.310Z,15.94
2022-09-04T06:16:08.165Z,15.96
2022-09-04T06:18:46.840Z,15.98
2022-09-04T06:21:38.344Z,16.00
2022-09-04T06:24:29.803Z,16.04
2022-09-04T06:27:29.055Z,16.11
2022-09-04T06:30:06.291Z,16.14
2022-09-04T06:32:59.621Z,16.18
2022-09-04T06:35:48.292Z,16.13
2022-09-04T06:38:27.642Z,16.22
2022-09-04T06:41:03.333Z,16.27
2022-09-04T06:43:38.133Z,16.27
2022-09-04T06:46:16.718Z,16.31
2022-09-04T06:48:53.548Z,16.34
2022-09-04T06:51:32.666Z,16.42
2022-09-04T06:54:07.852Z,16.41
2022-09-04T06:56:46.539Z,16.45
2022-09-04T06:59:27.918Z,16.50
2022-09-04T07:02:08.099Z,16.51
2022-09-04T07:04:45.741Z,16.53
2022-09-04T07:07:22.017Z,16.61
2022-09-04T07:09:52.927Z,16.70
2022-09-04T07:12:43.078Z,16.65
2022-09-04T07:15:35.021Z,16.74
2022-09-04T07:18:10.696Z,16.72
2022-09-04T07:20:42.595Z,16.81
2022-09-04T07:23:22.594Z,16.71
2022-09-04T07:26:00.616Z,16.74
2022-09-04T07:28:35.788Z,16.89
2022-09-04T07:31:06.891Z,16.86
2022-09-04T07:33:39.520Z,16.96
2022-09-04T07:36:11.312Z,16.94
2022-09-04T07:38:44.252Z,16.98
2022-09-04T07:41:23.820Z,17.10
2022-09-04T07:43:56.934Z,17.23
2022-09-04T07:46:33.297Z,17.23
2022-09-04T07:49:09.517Z,17.29
2022-09-04T07:51:42.656Z,17.25
2022-09-04T07:54:31.081Z,17.19
2022-09-04T07:57:09.718Z,17.37
2022-09-04T07:59:59.168Z,17.38
2022-09-04T08:02:40.085Z,17.29
2022-09-04T08:05:24.001Z,17.35
2022-09-04T08:08:10.570Z,17.39
2022-09-04T08:10:40.303Z,17.42
2022-09-04T08:13:14.075Z,17.49
2022-09-04T08:15:49.232Z,17.53
2022-09-04T08:18:29.838Z,17.60
2022-09-04T08:21:10.617Z,17.65
2022-09-04T08:23:49.333Z,17.61
2022-09-04T08:26:21.154Z,17.66
2022-09-04T08:29:03.057Z,17.65
2022-09-04T08:31:32.098Z,17.74
2022-09-04T08:34:25.432Z,17.75
2022-09-04T08:36:58.689Z,17.90
2022-09-04T08:39:31.663Z,18.03
2022-09-04T08:42:26.914Z,18.16
2022-09-04T08:45:25.636Z,18.11
2022-09-04T08:48:41.740Z,18.26
2022-09-04T08:51:44.740Z,18.39
2022-09-04T08:54:37.060Z,18.50
2022-09-04T08:57:23.906Z,18.65
2022-09-04T09:00:06.593Z,18.82
2022-09-04T09:03:10.882Z,18.82
2022-09-04T09:06:02.021Z,18.97
2022-09-04T09:08:45.589Z,18.83
2022-09-04T09:11:24.437Z,18.88
2022-09-04T09:14:27.593Z,18.69
2022-09-04T09:17:12.425Z,18.66
2022-09-04T09:19:55.650Z,18.84
2022-09-04T09:22:47.464Z,18.81
2022-09-04T09:25:21.533Z,18.73
2022-09-04T09:28:23.322Z,18.79
2022-09-04T09:31:26.948Z,18.83
2022-09-04T09:34:37.967Z,18.92
2022-09-04T09:37:31.255Z,18.93
2022-09-04T09:40:32.747Z,19.04
2022-09-04T09:43:18.967Z,19.26
2022-09-04T09:46:24.221Z,19.49
2022-09-04T09:49:36.546Z,19.64
2022-09-04T09:52:22.511Z,19.89
2022-09-04T09:55:04.454Z,19.86
2022-09-04T09:58:02.178Z,19.74
2022-09-04T10:00:36.663Z,19.86
2022-09-04T10:03:25.561Z,19.96
2022-09-04T10:06:28.421Z,20.13
2022-09-04T10:09:32.555Z,20.16
2022-09-04T10:12:34.704Z,20.33
2022-09-04T10:15:29.504Z,20.32
2022-09-04T10:18:38.685Z,20.36
2022-09-04T10:21:30.897Z,20.53
2022-09-04T10:24:22.856Z,20.89
2022-09-04T10:27:28.800Z,20.95
2022-09-04T10:30:06.805Z,21.16
2022-09-04T10:33:12.398Z,21.33
2022-09-04T10:35:59.026Z,21.21
2022-09-04T10:38:58.732Z,20.95
2022-09-04T10:41:39.960Z,20.89
2022-09-04T10:44:36.208Z,21.12
2022-09-04T10:47:13.213Z,20.85
2022-09-04T10:50:01.700Z,21.53
2022-09-04T10:53:01.153Z,21.69
2022-09-04T10:55:42.431Z,21.94
2022-09-04T10:58:36.175Z,21.94
2022-09-04T11:01:35.058Z,22.09
2022-09-04T11:04:27.126Z,21.90
2022-09-04T11:07:10.451Z,22.12
2022-09-04T11:09:48.057Z,22.18
2022-09-04T11:12:33.276Z,22.33
2022-09-04T11:15:32.602Z,22.28
2022-09-04T11:18:23.203Z,22.41
2022-09-04T11:21:09.488Z,22.75
2022-09-04T11:24:04.051Z,22.64
2022-09-04T11:27:06.010Z,22.61
2022-09-04T11:29:44.090Z,22.80
2022-09-04T11:32:21.866Z,22.97
2022-09-04T11:35:13.831Z,23.01
2022-09-04T11:37:59.922Z,23.07
2022-09-04T11:41:04.689Z,23.16
2022-09-04T11:43:59.352Z,23.24
2022-09-04T11:46:44.194Z,23.12
2022-09-04T11:49:38.860Z,23.03
2022-09-04T11:52:16.252Z,23.52
2022-09-04T11:55:06.560Z,23.52
2022-09-04T11:57:45.296Z,23.62
2022-09-04T12:00:15.098Z,23.88
2022-09-04T12:02:58.613Z,23.66
2022-09-04T12:05:40.339Z,23.83
2022-09-04T12:08:24.156Z,23.75
2022-09-04T12:11:00.696Z,24.02
2022-09-04T12:13:53.218Z,24.20
2022-09-04T12:16:48.178Z,24.39
2022-09-04T12:19:56.077Z,24.31
2022-09-04T12:22:52.282Z,23.84
2022-09-04T12:25:51.019Z,23.79
2022-09-04T12:28:41.476Z,23.66
2022-09-04T12:31:39.245Z,23.96
2022-09-04T12:34:34.114Z,24.23
2022-09-04T12:37:37.684Z,24.29
2022-09-04T12:40:32.703Z,24.78
2022-09-04T12:43:16.329Z,25.05
2022-09-04T12:45:47.759Z,24.73
2022-09-04T12:48:24.076Z,24.50
2022-09-04T12:50:55.911Z,24.53
2022-09-04T12:53:57.386Z,25.05
2022-09-04T12:56:35.673Z,25.21
2022-09-04T12:59:16.182Z,25.43
2022-09-04T13:01:54.278Z,25.52
2022-09-04T13:04:32.474Z,25.31
2022-09-04T13:07:16.336Z,25.47
2022-09-04T13:09:53.954Z,25.52
2022-09-04T13:12:26.601Z,25.87
2022-09-04T13:15:07.718Z,26.03
2022-09-04T13:17:43.545Z,25.94
2022-09-04T13:20:20.840Z,25.93
2022-09-04T13:23:01.250Z,25.89
2022-09-04T13:25:37.290Z,25.84
2022-09-04T13:28:16.982Z,25.81
2022-09-04T13:30:49.736Z,26.14
2022-09-04T13:33:39.636Z,26.07
2022-09-04T13:36:19.903Z,25.99
2022-09-04T13:39:22.181Z,25.93
2022-09-04T13:42:01.747Z,25.89
2022-09-04T13:44:59.338Z,26.03
2022-09-04T13:47:33.069Z,26.08
2022-09-04T13:50:08.519Z,25.78
2022-09-04T13:52:40.318Z,25.84
2022-09-04T13:55:12.727Z,26.10
2022-09-04T13:57:43.776Z,26.25
2022-09-04T14:00:13.137Z,26.34
2022-09-04T14:02:41.912Z,26.52
2022-09-04T14:05:13.195Z,26.55
2022-09-04T14:07:45.237Z,26.45
2022-09-04T14:10:15.600Z,26.51
2022-09-04T14:12:54.405Z,26.53
2022-09-04T14:15:32.775Z,26.69
2022-09-04T14:18:21.200Z,26.61
2022-09-04T14:20:57.907Z,26.60
2022-09-04T14:23:40.726Z,26.45
2022-09-04T14:26:15.389Z,26.13
2022-09-04T14:28:48.574Z,26.26
2022-09-04T14:31:22.663Z,26.55
2022-09-04T14:33:57.553Z,26.51
2022-09-04T14:36:35.429Z,26.73
2022-09-04T14:39:18.153Z,26.60
2022-09-04T14:41:55.429Z,26.60
2022-09-04T14:44:35.682Z,26.80
2022-09-04T14:47:09.627Z,26.66
2022-09-04T14:49:42.250Z,26.60
2022-09-04T14:52:18.370Z,26.46
2022-09-04T14:54:48.262Z,26.53
2022-09-04T14:57:19.542Z,26.73
2022-09-04T14:59:51.605Z,26.57
2022-09-04T15:02:24.224Z,26.73
2022-09-04T15:04:56.391Z,27.03
2022-09-04T15:07:49.157Z,26.74
2022-09-04T15:10:24.460Z,26.91
2022-09-04T15:12:56.928Z,26.77
2022-09-04T15:15:31.594Z,26.70
2022-09-04T15:18:06.604Z,26.76
2022-09-04T15:20:40.416Z,26.59
2022-09-04T15:23:14.151Z,26.57
2022-09-04T15:25:59.769Z,26.46
2022-09-04T15:28:30.567Z,26.54
2022-09-04T15:31:15.537Z,26.53
2022-09-04T15:33:44.349Z,26.48
2022-09-04T15:36:18.187Z,26.42
2022-09-04T15:38:51.827Z,26.38
2022-09-04T15:41:25.863Z,26.28
2022-09-04T15:43:56.651Z,26.27
2022-09-04T15:46:29.616Z,26.20
2022-09-04T15:49:04.210Z,26.01
2022-09-04T15:51:40.346Z,26.01
2022-09-04T15:54:18.400Z,26.26
2022-09-04T15:56:55.643Z,26.00
2022-09-04T15:59:25.998Z,25.92
2022-09-04T16:02:01.837Z,25.85
2022-09-04T16:04:34.195Z,25.90
2022-09-04T16:07:32.881Z,25.67
2022-09-04T16:10:05.894Z,25.70
2022-09-04T16:12:37.791Z,25.64
2022-09-04T16:15:09.120Z,25.67
2022-09-04T16:17:43.354Z,25.65
2022-09-04T16:20:18.357Z,25.63
2022-09-04T16:22:49.366Z,25.63
2022-09-04T16:25:27.279Z,25.69
2022-09-04T16:27:59.540Z,25.70
2022-09-04T16:30:32.963Z,25.50
2022-09-04T16:33:01.280Z,25.48
2022-09-04T16:35:33.045Z,25.50
2022-09-04T16:38:07.961Z,25.50
2022-09-04T16:40:39.033Z,25.46
2022-09-04T16:43:19.559Z,25.50
2022-09-04T16:45:49.852Z,25.45
2022-09-04T16:48:34.596Z,25.37
2022-09-04T16:51:09.825Z,25.32
2022-09-04T16:54:05.199Z,25.20
2022-09-04T16:56:39.691Z,25.20
2022-09-04T16:59:20.213Z,25.18
2022-09-04T17:01:57.657Z,25.17
2022-09-04T17:04:30.988Z,25.06
2022-09-04T17:07:04.254Z,25.00
2022-09-04T17:09:42.559Z,24.95
2022-09-04T17:12:26.098Z,24.89
2022-09-04T17:14:58.954Z,24.75
2022-09-04T17:17:31.173Z,24.75
2022-09-04T17:20:09.669Z,24.66
2022-09-04T17:27:47.887Z,24.58
2022-09-04T17:29:09.736Z,24.36
2022-09-04T17:29:12.103Z,24.53
2022-09-04T17:31:36.076Z,24.15
2022-09-04T17:40:36.139Z,24.15
2022-09-04T17:40:40.545Z,24.04
2022-09-04T17:40:54.115Z,23.95
2022-09-04T17:42:57.051Z,23.90
2022-09-04T17:45:34.849Z,23.89
2022-09-04T17:48:10.488Z,23.70
2022-09-04T17:50:49.185Z,23.56
2022-09-04T17:53:33.544Z,23.40
2022-09-04T17:56:09.089Z,23.28
2022-09-04T17:58:39.276Z,23.16
2022-09-04T18:01:14.617Z,23.08
2022-09-04T18:04:02.794Z,22.97
2022-09-04T18:06:50.924Z,22.91
2022-09-04T18:09:26.997Z,22.88
2022-09-04T18:12:04.224Z,22.78
2022-09-04T18:14:35.247Z,22.66
2022-09-04T18:17:12.780Z,22.60
2022-09-04T18:19:45.913Z,22.49
2022-09-04T18:22:33.658Z,22.39
2022-09-04T18:25:16.176Z,22.39
2022-09-04T18:28:06.185Z,22.24
2022-09-04T18:37:06.288Z,22.21
2022-09-04T18:37:22.643Z,22.07
2022-09-04T18:37:26.030Z,22.18
2022-09-04T18:39:32.318Z,22.04
2022-09-04T18:46:06.541Z,22.04
2022-09-04T18:50:32.002Z,21.94
2022-09-04T18:50:35.602Z,21.83
2022-09-04T18:51:20.218Z,21.79
2022-09-04T18:53:53.676Z,21.77
2022-09-04T18:56:26.462Z,21.75
2022-09-04T18:59:05.517Z,21.69
2022-09-04T19:01:41.500Z,21.58
2022-09-04T19:04:41.473Z,21.52
2022-09-04T19:07:11.336Z,21.49
2022-09-04T19:10:02.551Z,21.41
2022-09-04T19:12:46.908Z,21.35
2022-09-04T19:15:36.943Z,21.34
2022-09-04T19:18:15.140Z,21.28
2022-09-04T19:20:47.457Z,21.23
2022-09-04T19:23:23.289Z,21.14
2022-09-04T19:25:55.197Z,21.21
2022-09-04T19:28:29.472Z,21.26
2022-09-04T19:31:07.992Z,21.20
2022-09-04T19:33:44.794Z,21.23
2022-09-04T19:36:22.920Z,21.26
2022-09-04T19:44:50.336Z,21.13
2022-09-04T19:46:03.818Z,21.11
2022-09-04T19:46:09.184Z,21.09
2022-09-04T19:47:52.899Z,21.05
2022-09-04T19:53:22.273Z,20.98
2022-09-04T19:53:37.828Z,20.90
2022-09-04T19:56:10.544Z,20.94
2022-09-04T19:58:44.043Z,20.83
2022-09-04T20:01:16.120Z,20.83
2022-09-04T20:03:48.841Z,20.76
2022-09-04T20:06:23.136Z,20.75
2022-09-04T20:08:54.370Z,20.74
2022-09-04T20:11:34.513Z,20.70
2022-09-04T20:14:14.502Z,20.66
2022-09-04T20:16:49.375Z,20.55
2022-09-04T20:19:28.347Z,20.40
2022-09-04T20:21:59.502Z,20.40
2022-09-04T20:24:33.379Z,20.29
2022-09-04T20:27:07.206Z,20.26
2022-09-04T20:29:39.126Z,20.19
2022-09-04T20:32:10.326Z,20.09
2022-09-04T20:34:44.184Z,20.06
2022-09-04T20:37:27.775Z,20.02
2022-09-04T20:40:04.104Z,19.98
2022-09-04T20:42:36.398Z,19.98
2022-09-04T20:52:40.433Z,19.99
2022-09-04T20:52:45.459Z,19.87
2022-09-04T20:52:49.296Z,19.84
2022-09-04T20:53:47.672Z,19.86
2022-09-04T20:56:34.748Z,19.80
2022-09-04T21:03:10.904Z,19.79
2022-09-04T21:03:21.498Z,19.76
2022-09-04T21:05:23.447Z,19.82
2022-09-04T21:07:55.184Z,19.80
2022-09-04T21:10:27.112Z,19.69
2022-09-04T21:13:10.860Z,19.62
2022-09-04T21:15:46.487Z,19.82
2022-09-04T21:18:34.352Z,19.78
2022-09-04T21:21:13.029Z,19.78
2022-09-04T21:24:03.656Z,19.73
2022-09-04T21:26:49.895Z,19.76
2022-09-04T21:29:29.778Z,19.66
2022-09-04T21:32:31.180Z,19.60
2022-09-04T21:35:08.355Z,19.61
2022-09-04T21:37:42.237Z,19.51
2022-09-04T21:41:01.023Z,19.55
2022-09-04T21:43:54.366Z,19.54
2022-09-04T21:46:34.397Z,19.57
2022-09-04T21:49:10.097Z,19.56
2022-09-04T21:51:48.869Z,19.17
2022-09-04T21:56:53.433Z,19.01
2022-09-04T22:02:31.672Z,18.96
2022-09-04T22:02:39.063Z,18.97
2022-09-04T22:03:31.732Z,18.78
2022-09-04T22:06:09.171Z,18.73
2022-09-04T22:13:29.413Z,18.71
2022-09-04T22:13:41.779Z,18.77
2022-09-04T22:14:37.217Z,18.85
2022-09-04T22:17:08.034Z,18.68
2022-09-04T22:19:59.707Z,18.62
2022-09-04T22:23:03.401Z,18.48
2022-09-04T22:25:46.592Z,18.55
2022-09-04T22:28:49.998Z,18.57
2022-09-04T22:31:47.465Z,18.42
2022-09-04T22:34:54.590Z,18.45
2022-09-04T22:38:12.727Z,18.44
2022-09-04T22:40:56.925Z,18.58
2022-09-04T22:43:26.822Z,18.44
2022-09-04T22:46:31.406Z,18.41
2022-09-04T22:49:43.002Z,18.40
2022-09-04T22:52:38.716Z,18.28
2022-09-04T22:55:39.125Z,18.22
2022-09-04T22:58:47.058Z,18.14
2022-09-04T23:01:25.590Z,18.16
2022-09-04T23:04:04.822Z,18.27
2022-09-04T23:09:34.182Z,18.24
2022-09-04T23:13:52.186Z,18.24
2022-09-04T23:13:56.231Z,18.28
2022-09-04T23:16:13.446Z,18.30
2022-09-04T23:20:57.498Z,18.37
2022-09-04T23:26:49.022Z,18.28
2022-09-04T23:26:58.361Z,18.31
2022-09-04T23:27:57.349Z,18.38
2022-09-04T23:30:27.089Z,18.44
2022-09-04T23:33:28.424Z,18.28
2022-09-04T23:36:03.161Z,18.15
2022-09-04T23:39:23.994Z,18.14
2022-09-04T23:42:02.366Z,18.18
2022-09-04T23:44:55.515Z,18.17
2022-09-04T23:47:55.331Z,18.19
2022-09-04T23:50:32.006Z,18.15
2022-09-04T23:53:06.738Z,18.07
2022-09-04T23:55:49.329Z,18.07
2022-09-04T23:58:52.180Z,18.00
